Time;durP1;ratioP1;P1;durP2;ratioP2;P2;SDS_P1;SDS_P2;PMS_P1;PMS_P2;Temp;Humidity;BMP_temperature;BMP_pressure;BME280_temperature;BME280_humidity;BME280_pressure;Samples;Min_cycle;Max_cycle;Signal;HPM_P1;HPM_P2
2021/10/14 00:02:20;;;;;;;16.67;7.13;;;11.50;93.50;;;;;;5074435;28;20020;-73
2021/10/14 00:04:46;;;;;;;13.73;7.10;;;11.50;93.60;;;;;;5056529;28;20027;-74
2021/10/14 00:07:11;;;;;;;16.85;7.72;;;11.50;93.60;;;;;;5056146;28;20024;-73
2021/10/14 00:09:37;;;;;;;17.73;8.05;;;11.50;93.60;;;;;;5056604;28;20056;-73
2021/10/14 00:12:04;;;;;;;14.52;7.18;;;11.50;93.70;;;;;;5061603;28;20033;-74
2021/10/14 00:14:29;;;;;;;17.75;7.40;;;11.50;93.60;;;;;;5089251;28;20028;-74
2021/10/14 00:16:56;;;;;;;18.33;7.80;;;11.50;93.70;;;;;;5089528;28;20020;-74
2021/10/14 00:19:22;;;;;;;15.63;7.68;;;11.50;93.90;;;;;;5060719;28;20028;-75
2021/10/14 00:21:48;;;;;;;18.95;8.95;;;11.50;93.70;;;;;;5056356;28;20028;-73
2021/10/14 00:24:14;;;;;;;15.48;8.05;;;11.60;93.70;;;;;;5056168;28;20130;-74
2021/10/14 00:26:39;;;;;;;14.00;7.45;;;11.60;93.70;;;;;;5056247;28;20026;-75
2021/10/14 00:29:05;;;;;;;15.60;9.77;;;11.60;93.70;;;;;;5073573;28;20025;-75
2021/10/14 00:31:31;;;;;;;18.08;9.27;;;11.60;93.70;;;;;;5073131;28;20036;-74
2021/10/14 00:33:56;;;;;;;22.88;9.52;;;11.60;93.80;;;;;;5055651;28;20377;-74
2021/10/14 00:36:22;;;;;;;16.15;9.52;;;11.60;93.70;;;;;;5073457;28;20032;-75
2021/10/14 00:38:48;;;;;;;16.17;10.05;;;11.70;93.80;;;;;;5073595;28;20017;-74
2021/10/14 00:41:15;;;;;;;15.35;9.93;;;11.60;93.80;;;;;;5055454;28;20082;-74
2021/10/14 00:43:40;;;;;;;18.27;9.43;;;11.70;93.80;;;;;;5073374;28;20025;-74
2021/10/14 00:46:14;;;;;;;17.73;9.55;;;11.70;93.80;;;;;;5055342;28;20188;-73
2021/10/14 00:48:39;;;;;;;16.15;9.55;;;11.70;93.80;;;;;;5055652;28;20275;-74
2021/10/14 00:51:05;;;;;;;19.60;9.60;;;11.70;93.80;;;;;;5073163;28;20573;-74
2021/10/14 00:53:31;;;;;;;20.70;10.80;;;11.70;93.70;;;;;;5073345;28;20024;-74
2021/10/14 00:55:56;;;;;;;20.75;10.52;;;11.70;93.70;;;;;;5073371;28;20028;-74
2021/10/14 00:58:22;;;;;;;21.55;10.25;;;11.70;93.80;;;;;;5073021;28;20111;-74
2021/10/14 01:00:48;;;;;;;21.25;11.88;;;11.70;93.80;;;;;;5073037;28;20043;-74
2021/10/14 01:03:13;;;;;;;19.98;11.93;;;11.70;93.80;;;;;;5073049;28;20036;-74
2021/10/14 01:05:39;;;;;;;23.50;12.60;;;11.70;93.90;;;;;;5072940;28;20465;-74
2021/10/14 01:08:04;;;;;;;24.15;11.73;;;11.70;94.00;;;;;;5055029;28;20063;-74
2021/10/14 01:10:30;;;;;;;32.58;16.77;;;11.70;94.00;;;;;;5055189;28;20579;-75
2021/10/14 01:12:56;;;;;;;24.27;14.35;;;11.70;94.10;;;;;;5073172;28;20025;-75
2021/10/14 01:15:24;;;;;;;31.27;17.35;;;11.70;94.10;;;;;;5074381;28;20029;-74
2021/10/14 01:17:50;;;;;;;24.00;16.83;;;11.70;94.20;;;;;;5081310;28;20423;-75
2021/10/14 01:20:16;;;;;;;31.88;18.35;;;11.70;94.30;;;;;;5079902;28;20028;-74
2021/10/14 01:22:41;;;;;;;31.80;18.67;;;11.70;94.40;;;;;;5062867;28;20052;-74
2021/10/14 01:25:08;;;;;;;26.20;17.88;;;11.70;94.40;;;;;;5061962;28;20489;-74
2021/10/14 01:27:33;;;;;;;29.90;19.38;;;11.70;94.50;;;;;;5073100;28;20025;-74
2021/10/14 01:29:59;;;;;;;23.90;16.45;;;11.70;94.50;;;;;;5073049;28;20032;-74
2021/10/14 01:32:24;;;;;;;34.83;21.40;;;11.60;94.40;;;;;;5073868;28;20599;-74
2021/10/14 01:34:50;;;;;;;29.73;19.85;;;11.70;94.50;;;;;;5072683;28;20027;-74
2021/10/14 01:37:15;;;;;;;30.80;19.20;;;11.70;94.50;;;;;;5072455;28;20033;-73
2021/10/14 01:39:44;;;;;;;30.35;20.52;;;11.60;94.60;;;;;;5072451;28;20028;-74
2021/10/14 01:42:09;;;;;;;34.78;21.85;;;11.70;94.50;;;;;;5054105;28;20115;-74
2021/10/14 01:44:35;;;;;;;35.28;21.25;;;11.70;94.50;;;;;;5073650;28;20055;-74
2021/10/14 01:47:01;;;;;;;31.20;20.60;;;11.60;94.60;;;;;;5077039;28;20024;-73
2021/10/14 01:49:26;;;;;;;33.58;21.58;;;11.70;94.60;;;;;;5057130;28;20027;-73
2021/10/14 01:51:52;;;;;;;37.00;21.30;;;11.70;94.60;;;;;;5072571;28;20456;-74
2021/10/14 01:54:17;;;;;;;37.88;22.35;;;11.70;94.60;;;;;;5072528;28;20029;-74
2021/10/14 01:56:43;;;;;;;39.75;20.38;;;11.70;94.60;;;;;;5072702;28;20033;-74
2021/10/14 01:59:08;;;;;;;35.92;21.00;;;11.70;94.70;;;;;;5072357;28;20040;-74
2021/10/14 02:01:34;;;;;;;42.80;23.67;;;11.70;94.70;;;;;;5076883;28;20100;-74
2021/10/14 02:04:00;;;;;;;39.83;24.60;;;11.70;94.80;;;;;;5066762;28;20017;-72
2021/10/14 02:06:25;;;;;;;42.15;24.60;;;11.70;94.80;;;;;;5069987;28;20052;-73
2021/10/14 02:08:51;;;;;;;39.63;24.65;;;11.70;94.80;;;;;;5077227;28;20042;-74
2021/10/14 02:11:17;;;;;;;47.35;25.20;;;11.70;94.80;;;;;;5072020;28;20064;-74
2021/10/14 02:13:42;;;;;;;40.88;25.05;;;11.70;94.90;;;;;;5072000;28;20107;-73
2021/10/14 02:16:08;;;;;;;46.50;26.63;;;11.70;94.90;;;;;;5071672;28;20028;-72
2021/10/14 02:18:33;;;;;;;42.70;25.17;;;11.70;94.90;;;;;;5072732;28;20035;-74
2021/10/14 02:20:59;;;;;;;46.55;27.38;;;11.80;95.20;;;;;;5071672;28;20113;-73
2021/10/14 02:23:25;;;;;;;48.13;28.50;;;11.80;95.00;;;;;;5072380;28;20086;-74
2021/10/14 02:25:50;;;;;;;54.55;28.60;;;11.80;95.00;;;;;;5072656;28;20111;-74
2021/10/14 02:28:16;;;;;;;53.92;29.48;;;11.80;95.00;;;;;;5072195;28;20040;-74
2021/10/14 02:30:41;;;;;;;51.83;28.73;;;11.80;95.10;;;;;;5071810;28;20081;-73
2021/10/14 02:33:09;;;;;;;51.63;28.98;;;11.80;95.10;;;;;;5072314;28;20515;-73
2021/10/14 02:35:35;;;;;;;65.20;32.97;;;11.80;95.20;;;;;;5071696;28;20027;-74
2021/10/14 02:38:00;;;;;;;63.25;32.83;;;11.80;95.20;;;;;;5071882;28;20025;-75
2021/10/14 02:40:26;;;;;;;59.88;32.05;;;11.80;95.20;;;;;;5054193;28;20036;-75
2021/10/14 02:42:51;;;;;;;67.05;33.78;;;11.80;95.20;;;;;;5071955;28;20033;-74
2021/10/14 02:45:17;;;;;;;60.05;32.33;;;11.90;95.30;;;;;;5071781;28;20035;-75
2021/10/14 02:47:43;;;;;;;66.00;32.25;;;11.90;95.30;;;;;;5071607;28;20020;-74
2021/10/14 02:50:09;;;;;;;65.18;33.35;;;11.90;95.30;;;;;;5071633;28;20025;-73
2021/10/14 02:52:34;;;;;;;63.15;34.17;;;11.90;95.30;;;;;;5071722;28;20469;-75
2021/10/14 02:55:00;;;;;;;64.50;32.78;;;11.90;95.30;;;;;;5073400;28;20029;-75
2021/10/14 02:57:25;;;;;;;65.75;34.47;;;11.90;95.30;;;;;;5075386;28;20111;-74
2021/10/14 02:59:51;;;;;;;67.38;34.20;;;11.90;95.40;;;;;;5075270;28;20418;-74
2021/10/14 03:02:16;;;;;;;65.72;33.92;;;12.00;95.50;;;;;;5075108;28;20033;-74
2021/10/14 03:04:42;;;;;;;68.53;34.70;;;12.00;95.50;;;;;;5075470;28;20047;-75
2021/10/14 03:07:08;;;;;;;67.38;33.40;;;12.00;95.50;;;;;;5074936;28;20027;-74
2021/10/14 03:09:33;;;;;;;76.30;39.17;;;12.00;95.50;;;;;;5075271;28;20453;-73
2021/10/14 03:11:59;;;;;;;65.00;34.22;;;12.00;95.60;;;;;;5075110;28;20048;-73
2021/10/14 03:14:25;;;;;;;71.38;34.35;;;12.00;95.90;;;;;;5075237;28;20453;-74
2021/10/14 03:16:50;;;;;;;62.55;33.55;;;12.00;95.60;;;;;;5075180;28;20028;-74
2021/10/14 03:19:16;;;;;;;62.10;31.60;;;12.00;95.60;;;;;;5074888;28;20060;-75
2021/10/14 03:21:41;;;;;;;64.75;33.05;;;12.00;95.50;;;;;;5075114;28;20020;-74
2021/10/14 03:24:07;;;;;;;60.08;29.90;;;12.00;95.60;;;;;;5074922;28;20023;-72
2021/10/14 03:26:32;;;;;;;61.03;31.67;;;12.00;95.50;;;;;;5057051;28;20115;-74
2021/10/14 03:28:58;;;;;;;56.47;30.95;;;12.10;95.50;;;;;;5075086;28;20024;-74
2021/10/14 03:31:24;;;;;;;56.58;32.03;;;12.10;95.50;;;;;;5056489;28;20461;-73
2021/10/14 03:33:50;;;;;;;58.00;30.30;;;12.10;95.30;;;;;;5057261;28;20027;-74
2021/10/14 03:36:16;;;;;;;57.95;33.15;;;12.10;95.30;;;;;;5074574;28;20074;-75
2021/10/14 03:38:41;;;;;;;49.88;29.00;;;12.10;95.30;;;;;;5074794;28;20029;-74
2021/10/14 03:41:07;;;;;;;54.13;31.85;;;12.10;95.30;;;;;;5074351;28;20028;-74
2021/10/14 03:43:32;;;;;;;57.90;31.83;;;12.10;95.30;;;;;;5074880;28;20225;-73
2021/10/14 03:45:58;;;;;;;53.80;30.50;;;12.10;95.30;;;;;;5074445;28;20031;-73
2021/10/14 03:48:23;;;;;;;52.42;31.50;;;12.00;95.30;;;;;;5057014;28;20520;-73
2021/10/14 03:50:49;;;;;;;56.40;31.55;;;12.10;95.20;;;;;;5078151;28;20060;-74
2021/10/14 03:53:15;;;;;;;50.78;30.33;;;12.10;95.20;;;;;;5083979;28;20060;-71
2021/10/14 03:55:40;;;;;;;55.58;32.50;;;12.00;95.10;;;;;;5091314;28;20025;-74
2021/10/14 03:58:06;;;;;;;48.33;30.75;;;12.10;95.10;;;;;;5060126;28;20021;-73
2021/10/14 04:00:31;;;;;;;53.67;31.70;;;12.10;95.00;;;;;;5056624;28;20116;-75
2021/10/14 04:02:57;;;;;;;44.80;25.42;;;12.10;94.90;;;;;;5074007;28;20393;-73
2021/10/14 04:05:23;;;;;;;51.50;31.08;;;12.10;94.90;;;;;;5055694;28;20021;-74
2021/10/14 04:07:48;;;;;;;53.20;29.92;;;12.10;95.00;;;;;;5073447;28;20518;-74
2021/10/14 04:10:14;;;;;;;56.72;33.25;;;12.10;94.90;;;;;;5055902;28;20453;-74
2021/10/14 04:12:41;;;;;;;60.03;35.90;;;12.10;94.90;;;;;;5073806;28;20020;-74
2021/10/14 04:15:07;;;;;;;48.67;31.23;;;12.10;94.90;;;;;;5056090;28;20021;-74
2021/10/14 04:17:32;;;;;;;44.83;31.80;;;12.10;94.90;;;;;;5074083;28;20488;-75
2021/10/14 04:19:58;;;;;;;48.83;32.90;;;12.10;94.90;;;;;;5074153;28;20029;-73
2021/10/14 04:22:24;;;;;;;55.80;32.03;;;12.10;94.80;;;;;;5073924;28;20035;-74
2021/10/14 04:24:49;;;;;;;53.03;33.47;;;12.10;94.80;;;;;;5056427;28;20025;-74
2021/10/14 04:27:16;;;;;;;56.30;34.50;;;12.20;94.90;;;;;;5056756;28;20020;-75
2021/10/14 04:29:42;;;;;;;58.65;37.08;;;12.20;94.90;;;;;;5078630;28;20028;-74
2021/10/14 04:32:09;;;;;;;57.50;35.38;;;12.20;94.90;;;;;;5057615;28;20051;-73
2021/10/14 04:34:35;;;;;;;55.90;34.78;;;12.20;94.90;;;;;;5073889;28;20023;-73
2021/10/14 04:37:08;;;;;;;56.80;35.90;;;12.10;94.90;;;;;;5055688;28;20021;-73
2021/10/14 04:39:38;;;;;;;53.35;35.40;;;12.10;94.90;;;;;;5055650;28;20021;-74
2021/10/14 04:42:05;;;;;;;57.30;37.58;;;12.10;95.00;;;;;;5073850;28;20535;-73
2021/10/14 04:44:31;;;;;;;56.67;36.95;;;12.10;95.00;;;;;;5055769;28;20035;-74
2021/10/14 04:46:57;;;;;;;55.63;35.65;;;12.20;95.00;;;;;;5073244;28;20108;-74
2021/10/14 04:49:23;;;;;;;55.20;35.92;;;12.20;95.00;;;;;;5055237;28;20501;-74
2021/10/14 04:51:48;;;;;;;55.67;36.63;;;12.20;95.00;;;;;;5073432;28;20116;-74
2021/10/14 04:54:14;;;;;;;54.72;36.22;;;12.10;95.00;;;;;;5055338;28;20047;-74
2021/10/14 04:56:40;;;;;;;58.85;37.65;;;12.20;95.00;;;;;;5072867;28;20233;-74
2021/10/14 04:59:05;;;;;;;52.60;36.03;;;12.10;95.00;;;;;;5055044;28;20020;-74
2021/10/14 05:01:31;;;;;;;54.67;37.30;;;12.20;95.00;;;;;;5055316;28;20181;-73
2021/10/14 05:03:56;;;;;;;55.95;38.28;;;12.20;95.00;;;;;;5072745;28;20162;-74
2021/10/14 05:06:22;;;;;;;59.05;38.67;;;12.20;95.00;;;;;;5072929;28;20027;-74
2021/10/14 05:08:47;;;;;;;60.17;37.55;;;12.10;95.00;;;;;;5072741;28;20100;-75
2021/10/14 05:11:13;;;;;;;57.45;37.38;;;12.20;95.10;;;;;;5072633;28;20032;-74
2021/10/14 05:13:40;;;;;;;58.30;38.70;;;12.20;95.10;;;;;;5072950;28;20065;-74
2021/10/14 05:16:06;;;;;;;54.72;37.47;;;12.20;95.20;;;;;;5072598;28;20074;-73
2021/10/14 05:18:32;;;;;;;57.88;38.80;;;12.10;95.20;;;;;;5072665;28;20119;-74
2021/10/14 05:20:58;;;;;;;56.08;40.25;;;12.10;95.20;;;;;;5072888;28;20059;-74
2021/10/14 05:23:23;;;;;;;58.60;39.83;;;12.10;95.30;;;;;;5072736;28;20095;-74
2021/10/14 05:25:49;;;;;;;48.28;33.40;;;12.10;95.30;;;;;;5054879;28;20465;-73
2021/10/14 05:28:16;;;;;;;51.38;34.25;;;12.10;95.10;;;;;;5072473;28;20024;-72
2021/10/14 05:30:42;;;;;;;51.63;32.00;;;12.20;95.20;;;;;;5054752;28;20044;-73
2021/10/14 05:33:07;;;;;;;50.45;33.13;;;12.10;95.20;;;;;;5054466;28;20020;-74
2021/10/14 05:35:33;;;;;;;59.50;36.80;;;12.20;95.20;;;;;;5072942;28;20024;-74
2021/10/14 05:37:59;;;;;;;58.42;34.95;;;12.20;95.20;;;;;;5072784;28;20354;-74
2021/10/14 05:40:24;;;;;;;53.65;36.53;;;12.20;95.20;;;;;;5081804;28;20028;-73
2021/10/14 05:42:50;;;;;;;59.00;37.80;;;12.20;95.30;;;;;;5064991;28;20021;-73
2021/10/14 05:45:16;;;;;;;47.95;29.27;;;12.20;95.30;;;;;;5076707;28;20025;-74
2021/10/14 05:47:41;;;;;;;60.13;37.75;;;12.30;95.30;;;;;;5072600;28;20039;-74
2021/10/14 05:50:10;;;;;;;54.80;34.80;;;12.30;95.30;;;;;;5054599;28;20370;-74
2021/10/14 05:52:36;;;;;;;53.08;36.05;;;12.30;95.30;;;;;;5073153;28;20025;-73
2021/10/14 05:55:02;;;;;;;54.70;38.22;;;12.30;95.40;;;;;;5054801;28;20027;-73
2021/10/14 05:57:27;;;;;;;50.30;33.53;;;12.30;95.30;;;;;;5072416;28;20465;-74
2021/10/14 05:59:55;;;;;;;56.17;36.70;;;12.30;95.40;;;;;;5072230;28;20108;-73
2021/10/14 06:02:21;;;;;;;52.72;34.78;;;12.30;95.40;;;;;;5071938;28;20120;-74
2021/10/14 06:04:46;;;;;;;48.28;32.42;;;12.30;95.70;;;;;;5072388;28;20071;-73
2021/10/14 06:07:12;;;;;;;55.53;36.05;;;12.30;95.40;;;;;;5071859;28;20469;-74
2021/10/14 06:09:38;;;;;;;49.22;32.08;;;12.30;95.40;;;;;;5054229;28;20029;-73
2021/10/14 06:12:03;;;;;;;55.53;34.90;;;12.30;95.40;;;;;;5054392;28;20025;-73
2021/10/14 06:14:29;;;;;;;48.42;31.38;;;12.30;95.40;;;;;;5072050;28;20066;-73
2021/10/14 06:16:55;;;;;;;47.00;32.40;;;12.30;95.40;;;;;;5054093;28;20025;-74
2021/10/14 06:19:20;;;;;;;27.67;20.27;;;12.40;95.40;;;;;;5054304;28;20021;-75
2021/10/14 06:21:46;;;;;;;42.72;29.60;;;12.40;95.30;;;;;;5054090;28;20028;-75
2021/10/14 06:24:11;;;;;;;55.92;34.42;;;12.40;95.30;;;;;;5072109;28;20058;-74
2021/10/14 06:26:37;;;;;;;55.38;34.70;;;12.40;95.40;;;;;;5072122;28;20020;-74
2021/10/14 06:29:03;;;;;;;55.90;35.83;;;12.40;95.30;;;;;;5072403;28;20017;-74
2021/10/14 06:31:28;;;;;;;67.13;39.60;;;12.40;95.30;;;;;;5057835;28;20090;-74
2021/10/14 06:33:54;;;;;;;48.95;32.17;;;12.40;95.40;;;;;;5076022;28;20357;-74
2021/10/14 06:36:19;;;;;;;60.17;35.58;;;12.40;95.30;;;;;;5075679;28;20029;-74
2021/10/14 06:38:45;;;;;;;57.40;35.58;;;12.50;95.40;;;;;;5076132;28;20060;-75
2021/10/14 06:41:10;;;;;;;50.85;35.40;;;12.50;95.50;;;;;;5057698;28;20025;-75
2021/10/14 06:43:36;;;;;;;54.25;34.50;;;12.50;95.50;;;;;;5057533;28;20346;-74
2021/10/14 06:46:02;;;;;;;58.30;39.08;;;12.50;95.50;;;;;;5075327;28;20031;-73
2021/10/14 06:48:27;;;;;;;55.95;35.30;;;12.50;95.50;;;;;;5057600;28;20388;-74
2021/10/14 06:50:53;;;;;;;62.65;38.13;;;12.50;95.40;;;;;;5057758;28;20039;-74
2021/10/14 06:53:18;;;;;;;68.18;40.38;;;12.50;95.40;;;;;;5075450;28;20025;-74
2021/10/14 06:55:44;;;;;;;52.25;34.45;;;12.50;95.40;;;;;;5057409;28;20028;-74
2021/10/14 06:58:10;;;;;;;79.28;45.95;;;12.50;95.40;;;;;;5075223;28;20075;-74
2021/10/14 07:00:35;;;;;;;66.03;38.25;;;12.50;95.50;;;;;;5075540;28;20063;-74
2021/10/14 07:03:01;;;;;;;66.65;41.10;;;12.50;95.50;;;;;;5057264;28;20520;-74
2021/10/14 07:05:27;;;;;;;79.55;45.83;;;12.50;95.60;;;;;;5057132;28;20051;-74
2021/10/14 07:07:52;;;;;;;60.80;38.22;;;12.50;95.60;;;;;;5075763;28;20461;-74
2021/10/14 07:10:18;;;;;;;69.25;41.80;;;12.50;95.60;;;;;;5078416;28;20020;-73
2021/10/14 07:12:45;;;;;;;70.90;39.80;;;12.50;95.70;;;;;;5062584;28;20492;-74
2021/10/14 07:15:10;;;;;;;65.50;37.78;;;12.50;95.50;;;;;;5075307;28;20027;-74
2021/10/14 07:17:36;;;;;;;68.40;39.63;;;12.60;95.40;;;;;;5057142;28;20016;-74
2021/10/14 07:20:04;;;;;;;68.22;38.45;;;12.50;95.40;;;;;;5056936;28;20429;-75
2021/10/14 07:22:30;;;;;;;73.10;43.97;;;12.50;95.50;;;;;;5056480;28;20116;-74
2021/10/14 07:24:55;;;;;;;70.80;43.08;;;12.50;95.50;;;;;;5075328;28;20056;-74
2021/10/14 07:27:21;;;;;;;77.10;44.58;;;12.60;95.60;;;;;;5081067;28;20175;-74
2021/10/14 07:29:47;;;;;;;81.68;44.55;;;12.60;95.50;;;;;;5085105;28;20044;-72
2021/10/14 07:32:12;;;;;;;57.00;35.90;;;12.60;95.60;;;;;;5085606;28;20032;-73
2021/10/14 07:34:38;;;;;;;77.82;46.20;;;12.60;95.70;;;;;;5075910;28;20021;-74
2021/10/14 07:37:05;;;;;;;72.95;40.95;;;12.60;95.70;;;;;;5057111;28;20536;-74
2021/10/14 07:39:32;;;;;;;68.35;40.03;;;12.60;95.70;;;;;;5056660;28;20453;-74
2021/10/14 07:41:58;;;;;;;76.10;42.72;;;12.70;95.60;;;;;;5056676;28;20036;-74
2021/10/14 07:44:24;;;;;;;56.33;35.63;;;12.70;95.60;;;;;;5074402;28;20017;-74
2021/10/14 07:46:49;;;;;;;90.75;47.25;;;12.70;95.90;;;;;;5075122;28;20056;-73
2021/10/14 07:49:17;;;;;;;68.07;40.72;;;12.70;95.70;;;;;;5056337;28;20115;-73
2021/10/14 07:51:43;;;;;;;81.43;45.65;;;12.70;95.70;;;;;;5074131;28;20569;-74
2021/10/14 07:54:08;;;;;;;67.15;39.85;;;12.70;95.80;;;;;;5074428;28;20492;-74
2021/10/14 07:56:34;;;;;;;72.50;42.75;;;12.70;95.70;;;;;;5056577;28;20075;-75
2021/10/14 07:59:00;;;;;;;59.55;39.03;;;12.70;95.70;;;;;;5073963;28;20036;-74
2021/10/14 08:01:26;;;;;;;62.03;37.72;;;12.80;95.70;;;;;;5055994;28;20021;-74
2021/10/14 08:03:51;;;;;;;63.72;38.67;;;12.80;95.70;;;;;;5074452;28;20036;-74
2021/10/14 08:06:18;;;;;;;76.43;45.15;;;12.80;95.70;;;;;;5074433;28;20020;-74
2021/10/14 08:08:44;;;;;;;74.30;46.92;;;12.80;95.80;;;;;;5075673;28;20029;-74
2021/10/14 08:11:10;;;;;;;50.20;34.35;;;12.80;95.80;;;;;;5075275;28;20036;-74
2021/10/14 08:13:37;;;;;;;66.25;42.15;;;12.90;95.80;;;;;;5056903;28;20047;-75
2021/10/14 08:16:04;;;;;;;73.93;43.22;;;12.90;95.80;;;;;;5074535;28;20024;-75
2021/10/14 08:18:31;;;;;;;62.30;39.28;;;12.90;95.80;;;;;;5056218;28;20016;-74
2021/10/14 08:20:57;;;;;;;72.30;48.08;;;12.90;95.80;;;;;;5062027;28;20444;-74
2021/10/14 08:23:28;;;;;;;64.82;44.00;;;12.90;95.90;;;;;;5080574;28;20024;-75
2021/10/14 08:25:54;;;;;;;62.85;39.33;;;12.90;95.90;;;;;;5079487;28;20045;-73
2021/10/14 08:28:26;;;;;;;57.42;38.17;;;12.90;95.90;;;;;;5061164;28;20066;-74
2021/10/14 08:30:52;;;;;;;66.97;41.80;;;13.00;95.90;;;;;;5057279;28;20523;-75
2021/10/14 08:33:18;;;;;;;66.45;43.97;;;13.00;95.80;;;;;;5074455;28;20021;-74
2021/10/14 08:35:44;;;;;;;52.28;34.63;;;13.00;95.80;;;;;;5056373;28;20036;-73
2021/10/14 08:38:11;;;;;;;66.18;40.97;;;13.00;95.80;;;;;;5073637;28;20060;-75
2021/10/14 08:40:38;;;;;;;64.50;42.58;;;13.00;95.90;;;;;;5073073;28;20530;-74
2021/10/14 08:43:09;;;;;;;61.17;39.10;;;13.10;95.90;;;;;;5073419;28;20031;-74
2021/10/14 08:45:37;;;;;;;53.63;34.50;;;13.10;95.80;;;;;;5073310;28;20069;-74
2021/10/14 08:48:04;;;;;;;58.22;36.95;;;13.10;95.80;;;;;;5055118;28;20025;-73
2021/10/14 08:50:32;;;;;;;54.10;33.22;;;13.10;95.60;;;;;;5073105;28;20427;-74
2021/10/14 08:52:57;;;;;;;55.20;37.88;;;13.20;95.60;;;;;;5072550;28;20059;-74
2021/10/14 08:55:23;;;;;;;44.90;30.27;;;13.20;95.60;;;;;;5073324;28;20044;-74
2021/10/14 08:57:48;;;;;;;51.38;35.65;;;13.20;95.30;;;;;;5073560;28;20360;-73
2021/10/14 09:00:14;;;;;;;51.55;35.00;;;13.20;95.20;;;;;;5072987;28;20024;-73
2021/10/14 09:02:43;;;;;;;57.22;36.28;;;13.20;95.20;;;;;;5072966;28;20138;-74
2021/10/14 09:05:13;;;;;;;63.33;37.60;;;13.30;95.30;;;;;;5054803;28;20116;-74
2021/10/14 09:07:39;;;;;;;53.28;35.00;;;13.30;95.20;;;;;;5073051;28;20021;-73
2021/10/14 09:10:14;;;;;;;44.20;30.27;;;13.30;95.30;;;;;;5072822;28;20021;-73
2021/10/14 09:12:43;;;;;;;45.53;30.65;;;13.30;95.20;;;;;;5073015;28;20051;-74
2021/10/14 09:15:11;;;;;;;47.17;30.63;;;13.40;95.00;;;;;;5076249;28;20055;-73
2021/10/14 09:17:37;;;;;;;49.03;30.98;;;13.50;95.00;;;;;;5081522;28;20046;-73
2021/10/14 09:20:20;;;;;;;52.45;35.63;;;13.50;95.00;;;;;;5065074;28;20033;-73
2021/10/14 09:23:05;;;;;;;42.00;29.65;;;13.50;95.00;;;;;;5073996;28;20017;-72
2021/10/14 09:25:43;;;;;;;36.72;25.15;;;13.50;94.90;;;;;;5073081;28;20044;-73
2021/10/14 09:28:29;;;;;;;45.38;32.53;;;13.60;94.80;;;;;;5054574;28;20048;-73
2021/10/14 09:31:05;;;;;;;41.88;29.60;;;13.60;94.80;;;;;;5072576;28;20075;-73
2021/10/14 09:33:43;;;;;;;43.22;29.25;;;13.60;94.70;;;;;;5072627;28;20100;-73
2021/10/14 09:36:13;;;;;;;50.42;33.28;;;13.70;94.30;;;;;;5054426;28;20384;-74
2021/10/14 09:38:40;;;;;;;48.88;33.20;;;13.70;94.60;;;;;;5072875;28;20048;-75
2021/10/14 09:41:10;;;;;;;44.00;30.67;;;13.70;94.10;;;;;;5054617;28;20116;-75
2021/10/14 09:43:35;;;;;;;56.72;35.17;;;13.80;94.40;;;;;;5073455;28;20027;-75
2021/10/14 09:46:02;;;;;;;47.78;31.58;;;13.80;94.60;;;;;;5055089;28;20017;-75
2021/10/14 09:48:28;;;;;;;51.85;32.95;;;13.70;94.50;;;;;;5073050;28;20020;-75
2021/10/14 09:50:53;;;;;;;52.53;35.70;;;13.80;94.60;;;;;;5056843;28;20097;-74
2021/10/14 09:53:22;;;;;;;52.25;36.72;;;13.70;94.70;;;;;;5078604;28;20104;-75
2021/10/14 09:55:49;;;;;;;48.78;32.92;;;13.80;94.60;;;;;;5075964;28;20067;-75
2021/10/14 09:58:16;;;;;;;48.72;32.88;;;13.70;94.50;;;;;;5072662;28;20103;-76
2021/10/14 10:00:42;;;;;;;49.28;33.20;;;13.70;94.50;;;;;;5054576;28;20233;-76
2021/10/14 10:03:27;;;;;;;47.70;34.50;;;13.80;94.50;;;;;;5054507;28;20056;-75
2021/10/14 10:05:59;;;;;;;56.53;36.50;;;13.80;94.70;;;;;;5059026;28;20021;-75
2021/10/14 10:08:30;;;;;;;55.20;36.33;;;13.80;94.80;;;;;;5058685;28;20518;-76
2021/10/14 10:11:00;;;;;;;53.47;34.97;;;13.80;94.80;;;;;;5058654;28;20559;-75
2021/10/14 10:13:26;;;;;;;;;;;13.90;94.80;;;;;;5059261;28;20111;-75
2021/10/14 10:15:52;;;;;;;49.90;32.45;;;13.90;94.60;;;;;;5076532;28;19955;-75
2021/10/14 10:18:27;;;;;;;42.90;28.92;;;13.90;94.70;;;;;;5076189;28;20025;-74
2021/10/14 10:20:56;;;;;;;52.83;34.38;;;13.90;94.60;;;;;;5076216;28;20028;-73
2021/10/14 10:23:40;;;;;;;47.90;33.95;;;13.90;94.50;;;;;;5076318;28;20470;-75
2021/10/14 10:26:06;;;;;;;53.38;37.03;;;13.90;94.50;;;;;;5057782;28;20031;-73
2021/10/14 10:28:38;;;;;;;53.15;37.70;;;13.90;94.70;;;;;;5075712;28;20025;-74
2021/10/14 10:31:03;;;;;;;51.22;35.53;;;14.00;94.80;;;;;;5075771;28;20066;-74
2021/10/14 10:33:57;;;;;;;54.55;36.38;;;14.00;94.80;;;;;;5075601;28;20024;-74
2021/10/14 10:36:46;;;;;;;52.83;36.80;;;14.10;94.70;;;;;;5075719;28;20025;-74
2021/10/14 10:39:56;;;;;;;51.70;36.42;;;14.10;94.60;;;;;;5058027;28;20361;-73
2021/10/14 10:42:25;;;;;;;51.20;36.63;;;14.20;94.40;;;;;;5075483;28;20021;-74
2021/10/14 10:44:51;;;;;;;45.75;33.40;;;14.30;94.10;;;;;;5057444;28;20025;-74
2021/10/14 10:47:39;;;;;;;48.85;32.55;;;14.40;94.30;;;;;;5057201;28;20115;-73
2021/10/14 10:50:11;;;;;;;46.13;35.10;;;14.60;93.80;;;;;;5057325;28;20075;-75
2021/10/14 10:52:39;;;;;;;31.92;23.25;;;14.60;93.30;;;;;;5057614;28;20036;-74
2021/10/14 10:55:25;;;;;;;46.17;35.15;;;14.70;92.60;;;;;;5075918;28;20078;-75
2021/10/14 10:57:52;;;;;;;48.70;36.58;;;14.70;93.30;;;;;;5074318;28;20024;-75
2021/10/14 11:00:20;;;;;;;45.75;33.28;;;14.80;93.10;;;;;;5057233;28;20025;-75
2021/10/14 11:03:05;;;;;;;42.63;31.67;;;14.80;93.00;;;;;;5063368;28;20048;-74
2021/10/14 11:05:45;;;;;;;39.85;31.23;;;14.80;92.80;;;;;;5070442;28;20477;-73
2021/10/14 11:08:16;;;;;;;51.55;33.05;;;15.20;92.90;;;;;;5086075;28;20025;-74
2021/10/14 11:10:41;;;;;;;34.58;26.80;;;15.30;92.30;;;;;;5076914;28;20032;-74
2021/10/14 11:13:07;;;;;;;45.65;30.65;;;15.30;92.20;;;;;;5056938;28;20047;-73
2021/10/14 11:15:34;;;;;;;42.08;33.60;;;15.20;91.90;;;;;;5074063;28;20155;-74
2021/10/14 11:18:04;;;;;;;37.13;26.33;;;15.10;92.20;;;;;;5075198;28;20032;-74
2021/10/14 11:20:32;;;;;;;48.53;33.58;;;15.20;92.20;;;;;;5074649;28;20025;-75
2021/10/14 11:23:06;;;;;;;36.78;28.70;;;15.40;91.80;;;;;;5075210;28;20032;-75
2021/10/14 11:25:33;;;;;;;42.80;30.13;;;15.50;91.40;;;;;;5074840;28;20087;-74
2021/10/14 11:28:02;;;;;;;35.25;26.80;;;15.50;91.40;;;;;;5057126;28;20028;-75
2021/10/14 11:30:39;;;;;;;41.75;30.55;;;15.40;91.10;;;;;;5074751;28;20024;-74
2021/10/14 11:33:11;;;;;;;34.95;26.52;;;15.20;91.50;;;;;;5056909;28;20116;-74
2021/10/14 11:35:37;;;;;;;42.03;31.75;;;15.10;91.60;;;;;;5075114;28;20392;-74
2021/10/14 11:38:15;;;;;;;37.08;29.35;;;15.10;91.70;;;;;;5074809;28;20025;-75
2021/10/14 11:40:41;;;;;;;33.17;27.17;;;15.10;91.80;;;;;;5075165;28;20029;-74
2021/10/14 11:43:07;;;;;;;28.35;21.90;;;15.20;92.20;;;;;;5074512;28;20068;-74
2021/10/14 11:45:33;;;;;;;35.35;27.73;;;15.50;91.80;;;;;;5074946;28;20464;-73
2021/10/14 11:47:58;;;;;;;32.63;25.50;;;15.70;91.30;;;;;;5056227;28;20461;-74
2021/10/14 11:50:27;;;;;;;30.77;22.30;;;15.80;90.70;;;;;;5074302;28;20032;-72
2021/10/14 11:53:03;;;;;;;29.80;22.00;;;15.80;90.70;;;;;;5074528;28;20024;-76
2021/10/14 11:55:29;;;;;;;32.65;25.58;;;15.70;90.80;;;;;;5056431;28;20055;-76
2021/10/14 11:57:59;;;;;;;30.33;21.02;;;15.60;90.90;;;;;;5074099;28;20439;-75
2021/10/14 12:00:27;;;;;;;31.17;22.60;;;15.50;90.70;;;;;;5074138;28;20028;-75
2021/10/14 12:02:53;;;;;;;29.42;22.92;;;15.50;90.90;;;;;;5056520;28;20388;-75
2021/10/14 12:05:20;;;;;;;31.48;24.30;;;15.50;91.00;;;;;;5074363;28;20021;-75
2021/10/14 12:07:47;;;;;;;21.95;14.88;;;15.40;91.20;;;;;;5074410;28;20029;-75
2021/10/14 12:10:33;;;;;;;35.17;24.70;;;15.40;90.70;;;;;;5056336;28;20033;-74
2021/10/14 12:13:06;;;;;;;31.27;24.85;;;15.40;91.30;;;;;;5055932;28;20056;-73
2021/10/14 12:15:39;;;;;;;25.65;20.95;;;15.30;91.50;;;;;;5071180;28;20074;-74
2021/10/14 12:18:06;;;;;;;28.65;21.45;;;15.20;91.20;;;;;;5073127;28;20024;-75
2021/10/14 12:20:32;;;;;;;29.83;22.58;;;15.20;91.50;;;;;;5055618;28;20035;-73
2021/10/14 12:23:04;;;;;;;26.40;21.02;;;15.20;91.30;;;;;;5074061;28;20028;-73
2021/10/14 12:25:38;;;;;;;23.80;18.75;;;15.20;91.40;;;;;;5073430;28;20024;-74
2021/10/14 12:28:05;;;;;;;30.50;23.77;;;15.20;91.30;;;;;;5073265;28;20031;-73
2021/10/14 12:30:35;;;;;;;27.55;21.08;;;15.20;91.40;;;;;;5074971;28;20035;-73